sensor_id;sensor_type;location;lat;lon;timestamp;temperature;humidity
27573;DHT22;15009;53.082;8.768;2022-07-23T00:00:01;16.90;99.90
27573;DHT22;15009;53.082;8.768;2022-07-23T00:03:01;16.80;99.90
27573;DHT22;15009;53.082;8.768;2022-07-23T00:06:02;16.80;99.90
27573;DHT22;15009;53.082;8.768;2022-07-23T00:09:02;16.70;99.90
27573;DHT22;15009;53.082;8.768;2022-07-23T00:12:03;16.60;99.90
27573;DHT22;15009;53.082;8.768;2022-07-23T00:15:05;16.60;99.90
27573;DHT22;15009;53.082;8.768;2022-07-23T00:18:06;16.50;99.90
27573;DHT22;15009;53.082;8.768;2022-07-23T00:21:07;16.50;99.90
27573;DHT22;15009;53.082;8.768;2022-07-23T00:24:08;16.50;99.90
27573;DHT22;15009;53.082;8.768;2022-07-23T00:27:08;16.40;99.90
27573;DHT22;15009;53.082;8.768;2022-07-23T00:30:10;16.40;99.90
27573;DHT22;15009;53.082;8.768;2022-07-23T00:33:11;16.40;99.90
27573;DHT22;15009;53.082;8.768;2022-07-23T00:36:11;16.40;99.90
27573;DHT22;15009;53.082;8.768;2022-07-23T00:39:12;16.40;99.90
27573;DHT22;15009;53.082;8.768;2022-07-23T00:42:13;16.40;99.90
27573;DHT22;15009;53.082;8.768;2022-07-23T00:45:13;16.40;99.90
27573;DHT22;15009;53.082;8.768;2022-07-23T00:48:14;16.40;99.90
27573;DHT22;15009;53.082;8.768;2022-07-23T00:51:16;16.40;99.90
27573;DHT22;15009;53.082;8.768;2022-07-23T00:54:17;16.40;99.90
27573;DHT22;15009;53.082;8.768;2022-07-23T00:57:18;16.30;99.90
27573;DHT22;15009;53.082;8.768;2022-07-23T01:00:19;16.30;99.90
27573;DHT22;15009;53.082;8.768;2022-07-23T01:03:19;16.30;99.90
27573;DHT22;15009;53.082;8.768;2022-07-23T01:06:20;16.20;99.90
27573;DHT22;15009;53.082;8.768;2022-07-23T01:09:21;16.20;99.90
27573;DHT22;15009;53.082;8.768;2022-07-23T01:12:21;16.20;99.90
27573;DHT22;15009;53.082;8.768;2022-07-23T01:15:22;16.20;99.90
27573;DHT22;15009;53.082;8.768;2022-07-23T01:18:23;16.20;99.90
27573;DHT22;15009;53.082;8.768;2022-07-23T01:21:24;16.10;99.90
27573;DHT22;15009;53.082;8.768;2022-07-23T01:24:25;16.10;99.90
27573;DHT22;15009;53.082;8.768;2022-07-23T01:27:25;16.00;99.90
27573;DHT22;15009;53.082;8.768;2022-07-23T01:30:26;16.00;99.90
27573;DHT22;15009;53.082;8.768;2022-07-23T01:33:26;15.90;99.90
27573;DHT22;15009;53.082;8.768;2022-07-23T01:36:27;15.90;99.90
27573;DHT22;15009;53.082;8.768;2022-07-23T01:39:27;15.90;99.90
27573;DHT22;15009;53.082;8.768;2022-07-23T01:42:28;15.90;99.90
27573;DHT22;15009;53.082;8.768;2022-07-23T01:45:29;16.00;99.90
27573;DHT22;15009;53.082;8.768;2022-07-23T01:48:29;16.00;99.90
27573;DHT22;15009;53.082;8.768;2022-07-23T01:51:30;16.10;99.90
27573;DHT22;15009;53.082;8.768;2022-07-23T01:54:32;16.20;99.90
27573;DHT22;15009;53.082;8.768;2022-07-23T01:57:33;16.30;99.90
27573;DHT22;15009;53.082;8.768;2022-07-23T02:00:34;16.40;99.90
27573;DHT22;15009;53.082;8.768;2022-07-23T02:03:34;16.40;99.90
27573;DHT22;15009;53.082;8.768;2022-07-23T02:06:35;16.40;99.90
27573;DHT22;15009;53.082;8.768;2022-07-23T02:09:35;16.40;99.90
27573;DHT22;15009;53.082;8.768;2022-07-23T02:12:36;16.50;99.90
27573;DHT22;15009;53.082;8.768;2022-07-23T02:15:37;16.50;99.90
27573;DHT22;15009;53.082;8.768;2022-07-23T02:18:37;16.50;99.90
27573;DHT22;15009;53.082;8.768;2022-07-23T02:21:38;16.50;99.90
27573;DHT22;15009;53.082;8.768;2022-07-23T02:24:39;16.40;99.90
27573;DHT22;15009;53.082;8.768;2022-07-23T02:27:39;16.50;99.90
27573;DHT22;15009;53.082;8.768;2022-07-23T02:30:40;16.40;99.90
27573;DHT22;15009;53.082;8.768;2022-07-23T02:33:41;16.40;99.90
27573;DHT22;15009;53.082;8.768;2022-07-23T02:36:41;16.40;99.90
27573;DHT22;15009;53.082;8.768;2022-07-23T02:39:42;16.30;99.90
27573;DHT22;15009;53.082;8.768;2022-07-23T02:42:43;16.40;99.90
27573;DHT22;15009;53.082;8.768;2022-07-23T02:45:43;16.40;99.90
27573;DHT22;15009;53.082;8.768;2022-07-23T02:48:44;16.30;99.90
27573;DHT22;15009;53.082;8.768;2022-07-23T02:51:45;16.40;99.90
27573;DHT22;15009;53.082;8.768;2022-07-23T02:54:45;16.30;99.90
27573;DHT22;15009;53.082;8.768;2022-07-23T02:57:46;16.30;99.90
27573;DHT22;15009;53.082;8.768;2022-07-23T03:00:46;16.20;99.90
27573;DHT22;15009;53.082;8.768;2022-07-23T03:03:47;16.20;99.90
27573;DHT22;15009;53.082;8.768;2022-07-23T03:06:48;16.20;99.90
27573;DHT22;15009;53.082;8.768;2022-07-23T03:09:48;16.10;99.90
27573;DHT22;15009;53.082;8.768;2022-07-23T03:12:49;16.00;99.90
27573;DHT22;15009;53.082;8.768;2022-07-23T03:15:49;16.10;99.90
27573;DHT22;15009;53.082;8.768;2022-07-23T03:18:50;16.10;99.90
27573;DHT22;15009;53.082;8.768;2022-07-23T03:21:50;16.10;99.90
27573;DHT22;15009;53.082;8.768;2022-07-23T03:24:51;16.10;99.90
27573;DHT22;15009;53.082;8.768;2022-07-23T03:27:54;16.10;99.90
27573;DHT22;15009;53.082;8.768;2022-07-23T03:30:55;16.10;99.90
27573;DHT22;15009;53.082;8.768;2022-07-23T03:33:57;16.00;99.90
27573;DHT22;15009;53.082;8.768;2022-07-23T03:36:57;16.00;99.90
27573;DHT22;15009;53.082;8.768;2022-07-23T03:39:58;15.90;99.90
27573;DHT22;15009;53.082;8.768;2022-07-23T03:42:58;15.80;99.90
27573;DHT22;15009;53.082;8.768;2022-07-23T03:45:59;15.80;99.90
27573;DHT22;15009;53.082;8.768;2022-07-23T03:48:59;15.70;99.90
27573;DHT22;15009;53.082;8.768;2022-07-23T03:52:00;15.60;99.90
27573;DHT22;15009;53.082;8.768;2022-07-23T03:55:02;15.60;99.90
27573;DHT22;15009;53.082;8.768;2022-07-23T03:58:03;15.50;99.90
27573;DHT22;15009;53.082;8.768;2022-07-23T04:01:03;15.50;99.90
27573;DHT22;15009;53.082;8.768;2022-07-23T04:04:04;15.40;99.90
27573;DHT22;15009;53.082;8.768;2022-07-23T04:07:05;15.40;99.90
27573;DHT22;15009;53.082;8.768;2022-07-23T04:10:07;15.30;99.90
27573;DHT22;15009;53.082;8.768;2022-07-23T04:13:08;15.40;99.90
27573;DHT22;15009;53.082;8.768;2022-07-23T04:16:08;15.30;99.90
27573;DHT22;15009;53.082;8.768;2022-07-23T04:19:09;15.30;99.90
27573;DHT22;15009;53.082;8.768;2022-07-23T04:22:12;15.30;99.90
27573;DHT22;15009;53.082;8.768;2022-07-23T04:25:13;15.40;99.90
27573;DHT22;15009;53.082;8.768;2022-07-23T04:28:16;15.40;99.90
27573;DHT22;15009;53.082;8.768;2022-07-23T04:31:17;15.50;99.90
27573;DHT22;15009;53.082;8.768;2022-07-23T04:34:18;15.50;99.90
27573;DHT22;15009;53.082;8.768;2022-07-23T04:37:18;15.60;99.90
27573;DHT22;15009;53.082;8.768;2022-07-23T04:40:19;15.70;99.90
27573;DHT22;15009;53.082;8.768;2022-07-23T04:43:19;15.60;99.90
27573;DHT22;15009;53.082;8.768;2022-07-23T04:46:20;15.50;99.90
27573;DHT22;15009;53.082;8.768;2022-07-23T04:49:21;15.50;99.90
27573;DHT22;15009;53.082;8.768;2022-07-23T04:52:22;15.60;99.90
27573;DHT22;15009;53.082;8.768;2022-07-23T04:55:22;15.80;99.90
27573;DHT22;15009;53.082;8.768;2022-07-23T04:58:23;16.00;99.90
27573;DHT22;15009;53.082;8.768;2022-07-23T05:01:23;19.00;99.90
27573;DHT22;15009;53.082;8.768;2022-07-23T05:04:24;23.80;99.90
27573;DHT22;15009;53.082;8.768;2022-07-23T05:07:25;26.90;99.90
27573;DHT22;15009;53.082;8.768;2022-07-23T05:10:25;27.50;99.90
27573;DHT22;15009;53.082;8.768;2022-07-23T05:13:26;24.40;99.90
27573;DHT22;15009;53.082;8.768;2022-07-23T05:16:26;21.70;99.90
27573;DHT22;15009;53.082;8.768;2022-07-23T05:19:27;20.40;99.90
27573;DHT22;15009;53.082;8.768;2022-07-23T05:22:28;23.60;99.90
27573;DHT22;15009;53.082;8.768;2022-07-23T05:25:29;23.50;99.90
27573;DHT22;15009;53.082;8.768;2022-07-23T05:28:30;23.20;99.90
27573;DHT22;15009;53.082;8.768;2022-07-23T05:31:30;26.90;99.90
27573;DHT22;15009;53.082;8.768;2022-07-23T05:34:31;29.80;96.00
27573;DHT22;15009;53.082;8.768;2022-07-23T05:37:31;29.20;93.50
27573;DHT22;15009;53.082;8.768;2022-07-23T05:40:32;28.80;93.70
27573;DHT22;15009;53.082;8.768;2022-07-23T05:43:33;30.10;89.90
27573;DHT22;15009;53.082;8.768;2022-07-23T05:46:34;31.60;84.80
27573;DHT22;15009;53.082;8.768;2022-07-23T05:49:37;32.70;79.60
27573;DHT22;15009;53.082;8.768;2022-07-23T05:52:38;32.00;78.10
27573;DHT22;15009;53.082;8.768;2022-07-23T05:55:39;31.20;78.30
27573;DHT22;15009;53.082;8.768;2022-07-23T05:58:40;29.30;79.50
27573;DHT22;15009;53.082;8.768;2022-07-23T06:01:40;27.00;84.80
27573;DHT22;15009;53.082;8.768;2022-07-23T06:04:41;25.50;90.10
27573;DHT22;15009;53.082;8.768;2022-07-23T06:07:42;24.40;92.40
27573;DHT22;15009;53.082;8.768;2022-07-23T06:10:42;23.50;95.30
27573;DHT22;15009;53.082;8.768;2022-07-23T06:13:43;22.90;98.90
27573;DHT22;15009;53.082;8.768;2022-07-23T06:16:44;22.50;99.90
27573;DHT22;15009;53.082;8.768;2022-07-23T06:19:44;22.20;99.90
27573;DHT22;15009;53.082;8.768;2022-07-23T06:22:45;21.90;99.90
27573;DHT22;15009;53.082;8.768;2022-07-23T06:25:45;22.10;99.90
27573;DHT22;15009;53.082;8.768;2022-07-23T06:28:46;22.60;99.90
27573;DHT22;15009;53.082;8.768;2022-07-23T06:31:46;23.50;99.90
27573;DHT22;15009;53.082;8.768;2022-07-23T06:34:47;24.20;99.90
27573;DHT22;15009;53.082;8.768;2022-07-23T06:37:48;25.10;99.90
27573;DHT22;15009;53.082;8.768;2022-07-23T06:40:48;25.90;99.90
27573;DHT22;15009;53.082;8.768;2022-07-23T06:43:49;26.10;98.90
27573;DHT22;15009;53.082;8.768;2022-07-23T06:46:50;26.30;97.20
27573;DHT22;15009;53.082;8.768;2022-07-23T06:49:50;27.00;95.90
27573;DHT22;15009;53.082;8.768;2022-07-23T06:52:51;27.60;93.90
27573;DHT22;15009;53.082;8.768;2022-07-23T06:55:51;28.40;90.70
27573;DHT22;15009;53.082;8.768;2022-07-23T06:58:52;28.10;88.30
27573;DHT22;15009;53.082;8.768;2022-07-23T07:01:52;27.00;89.80
27573;DHT22;15009;53.082;8.768;2022-07-23T07:04:53;26.30;91.50
27573;DHT22;15009;53.082;8.768;2022-07-23T07:07:54;27.40;90.00
27573;DHT22;15009;53.082;8.768;2022-07-23T07:10:55;28.70;86.50
27573;DHT22;15009;53.082;8.768;2022-07-23T07:13:55;29.10;83.70
27573;DHT22;15009;53.082;8.768;2022-07-23T07:16:56;30.10;80.30
27573;DHT22;15009;53.082;8.768;2022-07-23T07:19:57;30.90;77.40
27573;DHT22;15009;53.082;8.768;2022-07-23T07:22:57;29.30;77.30
27573;DHT22;15009;53.082;8.768;2022-07-23T07:25:58;29.50;78.80
27573;DHT22;15009;53.082;8.768;2022-07-23T07:28:58;31.20;78.20
27573;DHT22;15009;53.082;8.768;2022-07-23T07:31:59;30.80;72.50
27573;DHT22;15009;53.082;8.768;2022-07-23T07:34:59;28.10;77.20
27573;DHT22;15009;53.082;8.768;2022-07-23T07:38:00;27.70;80.90
27573;DHT22;15009;53.082;8.768;2022-07-23T07:41:01;29.90;72.60
27573;DHT22;15009;53.082;8.768;2022-07-23T07:44:01;27.20;77.30
27573;DHT22;15009;53.082;8.768;2022-07-23T07:47:02;25.30;82.90
27573;DHT22;15009;53.082;8.768;2022-07-23T07:50:03;24.20;88.40
27573;DHT22;15009;53.082;8.768;2022-07-23T07:53:03;24.00;90.60
27573;DHT22;15009;53.082;8.768;2022-07-23T07:56:04;23.90;91.40
27573;DHT22;15009;53.082;8.768;2022-07-23T07:59:05;24.00;92.00
27573;DHT22;15009;53.082;8.768;2022-07-23T08:02:06;23.90;92.20
27573;DHT22;15009;53.082;8.768;2022-07-23T08:05:07;24.50;91.90
27573;DHT22;15009;53.082;8.768;2022-07-23T08:08:07;24.90;91.40
27573;DHT22;15009;53.082;8.768;2022-07-23T08:11:09;25.00;92.20
27573;DHT22;15009;53.082;8.768;2022-07-23T08:14:10;25.00;91.40
27573;DHT22;15009;53.082;8.768;2022-07-23T08:17:11;24.00;92.80
27573;DHT22;15009;53.082;8.768;2022-07-23T08:20:13;23.30;94.60
27573;DHT22;15009;53.082;8.768;2022-07-23T08:23:14;22.60;95.80
27573;DHT22;15009;53.082;8.768;2022-07-23T08:26:19;22.30;97.40
27573;DHT22;15009;53.082;8.768;2022-07-23T08:29:19;22.50;98.60
27573;DHT22;15009;53.082;8.768;2022-07-23T08:32:20;22.80;97.60
27573;DHT22;15009;53.082;8.768;2022-07-23T08:35:32;22.90;97.40
27573;DHT22;15009;53.082;8.768;2022-07-23T08:38:33;23.00;97.80
27573;DHT22;15009;53.082;8.768;2022-07-23T08:41:34;23.10;97.60
27573;DHT22;15009;53.082;8.768;2022-07-23T08:44:35;23.10;97.30
27573;DHT22;15009;53.082;8.768;2022-07-23T08:47:37;22.80;97.50
27573;DHT22;15009;53.082;8.768;2022-07-23T08:50:42;22.90;98.10
27573;DHT22;15009;53.082;8.768;2022-07-23T08:53:44;23.10;97.80
27573;DHT22;15009;53.082;8.768;2022-07-23T08:56:45;22.90;97.30
27573;DHT22;15009;53.082;8.768;2022-07-23T08:59:46;22.60;98.50
27573;DHT22;15009;53.082;8.768;2022-07-23T09:02:47;22.10;99.00
27573;DHT22;15009;53.082;8.768;2022-07-23T09:05:52;21.90;99.90
27573;DHT22;15009;53.082;8.768;2022-07-23T09:08:53;22.10;99.90
27573;DHT22;15009;53.082;8.768;2022-07-23T09:12:08;22.40;99.90
27573;DHT22;15009;53.082;8.768;2022-07-23T09:15:09;23.70;99.00
27573;DHT22;15009;53.082;8.768;2022-07-23T09:18:10;24.50;96.30
27573;DHT22;15009;53.082;8.768;2022-07-23T09:21:22;24.20;95.40
27573;DHT22;15009;53.082;8.768;2022-07-23T09:24:23;23.60;94.90
27573;DHT22;15009;53.082;8.768;2022-07-23T09:30:47;25.20;93.00
27573;DHT22;15009;53.082;8.768;2022-07-23T09:33:51;26.00;90.70
27573;DHT22;15009;53.082;8.768;2022-07-23T09:36:55;26.80;90.80
27573;DHT22;15009;53.082;8.768;2022-07-23T09:40:04;27.80;89.60
27573;DHT22;15009;53.082;8.768;2022-07-23T09:43:06;28.10;84.00
27573;DHT22;15009;53.082;8.768;2022-07-23T09:46:26;28.30;82.00
27573;DHT22;15009;53.082;8.768;2022-07-23T09:49:27;27.90;81.70
27573;DHT22;15009;53.082;8.768;2022-07-23T09:52:32;27.80;80.60
27573;DHT22;15009;53.082;8.768;2022-07-23T09:55:34;28.20;81.00
27573;DHT22;15009;53.082;8.768;2022-07-23T09:58:39;27.90;80.90
27573;DHT22;15009;53.082;8.768;2022-07-23T10:01:50;27.60;81.30
27573;DHT22;15009;53.082;8.768;2022-07-23T10:04:53;27.50;79.20
27573;DHT22;15009;53.082;8.768;2022-07-23T10:07:55;27.80;80.70
27573;DHT22;15009;53.082;8.768;2022-07-23T10:10:56;27.60;79.10
27573;DHT22;15009;53.082;8.768;2022-07-23T10:13:57;27.40;78.10
27573;DHT22;15009;53.082;8.768;2022-07-23T10:17:02;27.10;79.00
27573;DHT22;15009;53.082;8.768;2022-07-23T10:20:04;26.60;79.80
27573;DHT22;15009;53.082;8.768;2022-07-23T10:23:14;26.70;80.70
27573;DHT22;15009;53.082;8.768;2022-07-23T10:26:27;27.20;79.00
27573;DHT22;15009;53.082;8.768;2022-07-23T10:29:47;27.70;78.30
27573;DHT22;15009;53.082;8.768;2022-07-23T10:36:03;26.00;80.90
27573;DHT22;15009;53.082;8.768;2022-07-23T10:39:13;25.20;82.90
27573;DHT22;15009;53.082;8.768;2022-07-23T10:42:17;24.80;84.60
27573;DHT22;15009;53.082;8.768;2022-07-23T10:45:34;25.00;85.60
27573;DHT22;15009;53.082;8.768;2022-07-23T10:48:35;25.70;85.20
27573;DHT22;15009;53.082;8.768;2022-07-23T10:51:36;26.50;83.20
27573;DHT22;15009;53.082;8.768;2022-07-23T10:54:36;26.80;81.00
27573;DHT22;15009;53.082;8.768;2022-07-23T10:57:48;26.70;81.10
27573;DHT22;15009;53.082;8.768;2022-07-23T11:00:50;26.10;82.20
27573;DHT22;15009;53.082;8.768;2022-07-23T11:03:56;25.90;81.90
27573;DHT22;15009;53.082;8.768;2022-07-23T11:09:57;24.70;84.90
27573;DHT22;15009;53.082;8.768;2022-07-23T11:16:23;25.00;82.50
27573;DHT22;15009;53.082;8.768;2022-07-23T11:19:24;24.50;82.80
27573;DHT22;15009;53.082;8.768;2022-07-23T11:22:37;24.30;84.40
27573;DHT22;15009;53.082;8.768;2022-07-23T11:25:38;24.30;84.40
27573;DHT22;15009;53.082;8.768;2022-07-23T11:28:38;24.40;85.00
27573;DHT22;15009;53.082;8.768;2022-07-23T11:34:57;24.80;83.10
27573;DHT22;15009;53.082;8.768;2022-07-23T11:38:08;24.80;83.50
27573;DHT22;15009;53.082;8.768;2022-07-23T11:41:13;25.70;83.20
27573;DHT22;15009;53.082;8.768;2022-07-23T11:44:27;25.90;82.00
27573;DHT22;15009;53.082;8.768;2022-07-23T11:47:28;25.90;81.10
27573;DHT22;15009;53.082;8.768;2022-07-23T11:50:29;25.60;80.90
27573;DHT22;15009;53.082;8.768;2022-07-23T11:53:33;25.00;81.70
27573;DHT22;15009;53.082;8.768;2022-07-23T11:56:34;24.50;83.00
27573;DHT22;15009;53.082;8.768;2022-07-23T11:59:35;24.50;83.70
27573;DHT22;15009;53.082;8.768;2022-07-23T12:02:45;24.80;83.00
27573;DHT22;15009;53.082;8.768;2022-07-23T12:05:46;24.90;81.90
27573;DHT22;15009;53.082;8.768;2022-07-23T12:08:47;24.90;84.50
27573;DHT22;15009;53.082;8.768;2022-07-23T12:11:58;25.00;84.60
27573;DHT22;15009;53.082;8.768;2022-07-23T12:14:59;25.10;84.30
27573;DHT22;15009;53.082;8.768;2022-07-23T12:18:01;25.00;85.00
27573;DHT22;15009;53.082;8.768;2022-07-23T12:21:04;24.90;84.30
27573;DHT22;15009;53.082;8.768;2022-07-23T12:24:06;25.00;85.80
27573;DHT22;15009;53.082;8.768;2022-07-23T12:27:11;25.40;84.40
27573;DHT22;15009;53.082;8.768;2022-07-23T12:30:26;25.30;83.80
27573;DHT22;15009;53.082;8.768;2022-07-23T12:33:33;24.80;85.20
27573;DHT22;15009;53.082;8.768;2022-07-23T12:36:38;25.10;84.90
27573;DHT22;15009;53.082;8.768;2022-07-23T12:39:41;25.20;84.30
27573;DHT22;15009;53.082;8.768;2022-07-23T12:42:42;25.20;82.20
27573;DHT22;15009;53.082;8.768;2022-07-23T12:45:53;25.10;79.60
27573;DHT22;15009;53.082;8.768;2022-07-23T12:48:54;25.20;81.30
27573;DHT22;15009;53.082;8.768;2022-07-23T12:51:55;25.60;80.10
27573;DHT22;15009;53.082;8.768;2022-07-23T12:54:56;26.00;78.70
27573;DHT22;15009;53.082;8.768;2022-07-23T12:58:23;26.10;74.40
27573;DHT22;15009;53.082;8.768;2022-07-23T13:01:25;26.00;75.70
27573;DHT22;15009;53.082;8.768;2022-07-23T13:04:27;25.70;76.00
27573;DHT22;15009;53.082;8.768;2022-07-23T13:07:27;25.60;78.50
27573;DHT22;15009;53.082;8.768;2022-07-23T13:10:28;25.90;76.90
27573;DHT22;15009;53.082;8.768;2022-07-23T13:13:30;25.70;75.10
27573;DHT22;15009;53.082;8.768;2022-07-23T13:16:32;25.50;76.20
27573;DHT22;15009;53.082;8.768;2022-07-23T13:19:32;25.30;77.00
27573;DHT22;15009;53.082;8.768;2022-07-23T13:22:33;25.30;76.10
27573;DHT22;15009;53.082;8.768;2022-07-23T13:25:34;25.00;75.90
27573;DHT22;15009;53.082;8.768;2022-07-23T13:28:35;24.80;78.40
27573;DHT22;15009;53.082;8.768;2022-07-23T13:31:36;24.60;77.70
27573;DHT22;15009;53.082;8.768;2022-07-23T13:34:37;24.10;79.00
27573;DHT22;15009;53.082;8.768;2022-07-23T13:37:38;23.70;80.40
27573;DHT22;15009;53.082;8.768;2022-07-23T13:40:41;23.90;81.00
27573;DHT22;15009;53.082;8.768;2022-07-23T13:43:42;24.10;79.30
27573;DHT22;15009;53.082;8.768;2022-07-23T13:46:43;24.20;78.50
27573;DHT22;15009;53.082;8.768;2022-07-23T13:49:43;24.40;79.00
27573;DHT22;15009;53.082;8.768;2022-07-23T13:52:44;24.50;78.80
27573;DHT22;15009;53.082;8.768;2022-07-23T13:55:46;24.60;79.10
27573;DHT22;15009;53.082;8.768;2022-07-23T13:58:47;24.30;79.30
27573;DHT22;15009;53.082;8.768;2022-07-23T14:01:47;23.90;80.30
27573;DHT22;15009;53.082;8.768;2022-07-23T14:04:49;24.10;80.80
27573;DHT22;15009;53.082;8.768;2022-07-23T14:07:50;24.00;80.30
27573;DHT22;15009;53.082;8.768;2022-07-23T14:10:52;23.70;81.40
27573;DHT22;15009;53.082;8.768;2022-07-23T14:13:52;23.70;82.40
27573;DHT22;15009;53.082;8.768;2022-07-23T14:16:53;24.10;83.40
27573;DHT22;15009;53.082;8.768;2022-07-23T14:19:53;24.50;84.20
27573;DHT22;15009;53.082;8.768;2022-07-23T14:22:54;24.30;83.30
27573;DHT22;15009;53.082;8.768;2022-07-23T14:25:56;23.50;84.20
27573;DHT22;15009;53.082;8.768;2022-07-23T14:28:56;23.00;86.30
27573;DHT22;15009;53.082;8.768;2022-07-23T14:31:58;22.70;87.30
27573;DHT22;15009;53.082;8.768;2022-07-23T14:34:59;22.90;88.20
27573;DHT22;15009;53.082;8.768;2022-07-23T14:37:59;23.10;87.60
27573;DHT22;15009;53.082;8.768;2022-07-23T14:41:00;23.20;87.30
27573;DHT22;15009;53.082;8.768;2022-07-23T14:44:01;23.50;85.90
27573;DHT22;15009;53.082;8.768;2022-07-23T14:47:03;23.70;84.20
27573;DHT22;15009;53.082;8.768;2022-07-23T14:50:05;23.90;84.50
27573;DHT22;15009;53.082;8.768;2022-07-23T14:53:06;23.90;84.10
27573;DHT22;15009;53.082;8.768;2022-07-23T14:56:06;23.60;84.20
27573;DHT22;15009;53.082;8.768;2022-07-23T14:59:08;23.30;84.70
27573;DHT22;15009;53.082;8.768;2022-07-23T15:02:08;22.90;85.90
27573;DHT22;15009;53.082;8.768;2022-07-23T15:05:09;22.80;86.30
27573;DHT22;15009;53.082;8.768;2022-07-23T15:08:09;23.10;87.00
27573;DHT22;15009;53.082;8.768;2022-07-23T15:11:10;23.20;85.40
27573;DHT22;15009;53.082;8.768;2022-07-23T15:14:11;23.10;85.10
27573;DHT22;15009;53.082;8.768;2022-07-23T15:17:12;22.90;84.60
27573;DHT22;15009;53.082;8.768;2022-07-23T15:20:12;22.70;84.90
27573;DHT22;15009;53.082;8.768;2022-07-23T15:23:13;22.80;85.80
27573;DHT22;15009;53.082;8.768;2022-07-23T15:26:14;23.00;84.60
27573;DHT22;15009;53.082;8.768;2022-07-23T15:29:15;23.10;83.40
27573;DHT22;15009;53.082;8.768;2022-07-23T15:32:15;23.10;83.60
27573;DHT22;15009;53.082;8.768;2022-07-23T15:35:16;23.10;84.50
27573;DHT22;15009;53.082;8.768;2022-07-23T15:38:17;23.20;83.90
27573;DHT22;15009;53.082;8.768;2022-07-23T15:41:17;22.80;84.10
27573;DHT22;15009;53.082;8.768;2022-07-23T15:44:18;22.70;85.30
27573;DHT22;15009;53.082;8.768;2022-07-23T15:47:19;22.60;85.50
27573;DHT22;15009;53.082;8.768;2022-07-23T15:50:20;22.80;86.20
27573;DHT22;15009;53.082;8.768;2022-07-23T15:53:20;22.80;85.60
27573;DHT22;15009;53.082;8.768;2022-07-23T15:56:21;22.50;86.50
27573;DHT22;15009;53.082;8.768;2022-07-23T15:59:22;22.50;86.60
27573;DHT22;15009;53.082;8.768;2022-07-23T16:02:23;22.30;87.30
27573;DHT22;15009;53.082;8.768;2022-07-23T16:05:23;22.30;88.10
27573;DHT22;15009;53.082;8.768;2022-07-23T16:08:24;22.30;88.20
27573;DHT22;15009;53.082;8.768;2022-07-23T16:11:25;22.30;88.60
27573;DHT22;15009;53.082;8.768;2022-07-23T16:14:25;22.30;89.40
27573;DHT22;15009;53.082;8.768;2022-07-23T16:17:28;22.40;89.30
27573;DHT22;15009;53.082;8.768;2022-07-23T16:20:28;22.40;89.20
27573;DHT22;15009;53.082;8.768;2022-07-23T16:23:29;22.40;89.10
27573;DHT22;15009;53.082;8.768;2022-07-23T16:26:30;22.30;88.80
27573;DHT22;15009;53.082;8.768;2022-07-23T16:29:31;22.30;89.10
27573;DHT22;15009;53.082;8.768;2022-07-23T16:32:31;22.20;89.60
27573;DHT22;15009;53.082;8.768;2022-07-23T16:35:33;22.10;89.80
27573;DHT22;15009;53.082;8.768;2022-07-23T16:38:35;22.10;90.00
27573;DHT22;15009;53.082;8.768;2022-07-23T16:41:36;22.10;90.50
27573;DHT22;15009;53.082;8.768;2022-07-23T16:44:36;22.10;90.20
27573;DHT22;15009;53.082;8.768;2022-07-23T16:47:38;22.10;90.40
27573;DHT22;15009;53.082;8.768;2022-07-23T16:50:38;22.20;90.70
27573;DHT22;15009;53.082;8.768;2022-07-23T16:53:39;22.10;90.70
27573;DHT22;15009;53.082;8.768;2022-07-23T16:56:39;22.10;90.40
27573;DHT22;15009;53.082;8.768;2022-07-23T16:59:41;22.00;90.40
27573;DHT22;15009;53.082;8.768;2022-07-23T17:02:43;21.90;90.40
27573;DHT22;15009;53.082;8.768;2022-07-23T17:05:44;21.90;91.00
27573;DHT22;15009;53.082;8.768;2022-07-23T17:08:44;21.90;90.90
27573;DHT22;15009;53.082;8.768;2022-07-23T17:11:45;21.90;91.00
27573;DHT22;15009;53.082;8.768;2022-07-23T17:14:46;21.80;91.10
27573;DHT22;15009;53.082;8.768;2022-07-23T17:17:46;21.80;91.10
27573;DHT22;15009;53.082;8.768;2022-07-23T17:20:48;21.70;91.40
27573;DHT22;15009;53.082;8.768;2022-07-23T17:23:49;21.60;91.90
27573;DHT22;15009;53.082;8.768;2022-07-23T17:26:49;21.70;91.90
27573;DHT22;15009;53.082;8.768;2022-07-23T17:29:50;21.70;91.80
27573;DHT22;15009;53.082;8.768;2022-07-23T17:32:51;21.70;92.40
27573;DHT22;15009;53.082;8.768;2022-07-23T17:35:52;21.60;92.40
27573;DHT22;15009;53.082;8.768;2022-07-23T17:38:55;21.60;92.60
27573;DHT22;15009;53.082;8.768;2022-07-23T17:41:55;21.60;92.60
27573;DHT22;15009;53.082;8.768;2022-07-23T17:44:56;21.60;92.40
27573;DHT22;15009;53.082;8.768;2022-07-23T17:47:56;21.50;92.30
27573;DHT22;15009;53.082;8.768;2022-07-23T17:50:57;21.40;92.60
27573;DHT22;15009;53.082;8.768;2022-07-23T17:53:58;21.40;92.70
27573;DHT22;15009;53.082;8.768;2022-07-23T17:56:59;21.40;92.70
27573;DHT22;15009;53.082;8.768;2022-07-23T18:00:00;21.30;92.80
27573;DHT22;15009;53.082;8.768;2022-07-23T18:03:01;21.20;93.20
27573;DHT22;15009;53.082;8.768;2022-07-23T18:06:02;21.20;93.20
27573;DHT22;15009;53.082;8.768;2022-07-23T18:09:03;21.20;93.30
27573;DHT22;15009;53.082;8.768;2022-07-23T18:12:04;21.20;93.90
27573;DHT22;15009;53.082;8.768;2022-07-23T18:15:05;21.20;94.50
27573;DHT22;15009;53.082;8.768;2022-07-23T18:18:06;21.10;94.80
27573;DHT22;15009;53.082;8.768;2022-07-23T18:21:07;21.10;95.40
27573;DHT22;15009;53.082;8.768;2022-07-23T18:24:07;21.00;96.00
27573;DHT22;15009;53.082;8.768;2022-07-23T18:27:08;21.10;96.50
27573;DHT22;15009;53.082;8.768;2022-07-23T18:30:09;21.00;97.40
27573;DHT22;15009;53.082;8.768;2022-07-23T18:33:14;20.90;97.90
27573;DHT22;15009;53.082;8.768;2022-07-23T18:36:16;20.90;98.00
27573;DHT22;15009;53.082;8.768;2022-07-23T18:39:17;20.80;97.60
27573;DHT22;15009;53.082;8.768;2022-07-23T18:42:17;20.70;98.50
27573;DHT22;15009;53.082;8.768;2022-07-23T18:45:18;20.60;99.50
27573;DHT22;15009;53.082;8.768;2022-07-23T18:48:19;20.40;99.90
27573;DHT22;15009;53.082;8.768;2022-07-23T18:51:19;20.30;99.90
27573;DHT22;15009;53.082;8.768;2022-07-23T18:54:21;20.30;99.90
27573;DHT22;15009;53.082;8.768;2022-07-23T18:57:22;20.20;99.90
27573;DHT22;15009;53.082;8.768;2022-07-23T19:00:22;20.10;99.90
27573;DHT22;15009;53.082;8.768;2022-07-23T19:03:23;20.10;99.90
27573;DHT22;15009;53.082;8.768;2022-07-23T19:06:25;20.00;99.90
27573;DHT22;15009;53.082;8.768;2022-07-23T19:09:26;20.00;99.90
27573;DHT22;15009;53.082;8.768;2022-07-23T19:12:26;19.90;99.90
27573;DHT22;15009;53.082;8.768;2022-07-23T19:15:27;19.90;99.90
27573;DHT22;15009;53.082;8.768;2022-07-23T19:18:27;19.80;99.90
27573;DHT22;15009;53.082;8.768;2022-07-23T19:21:28;19.70;99.90